Time;durP1;ratioP1;P1;durP2;ratioP2;P2;SDS_P1;SDS_P2;PMS_P1;PMS_P2;Temp;Humidity;BMP_temperature;BMP_pressure;BME280_temperature;BME280_humidity;BME280_pressure;Samples;Min_cycle;Max_cycle;Signal;HPM_P1;HPM_P2
2021/09/03 00:00:33;;;;;;;10.43;5.63;;;;;;;13.92;83.07;96773.22;4975405;28;20209;-71
2021/09/03 00:03:00;;;;;;;9.63;5.40;;;;;;;13.87;83.42;96772.13;4974868;28;20203;-71
2021/09/03 00:05:26;;;;;;;9.47;5.97;;;;;;;13.94;85.85;96773.88;4975453;28;20211;-71
2021/09/03 00:07:54;;;;;;;13.98;7.47;;;;;;;13.99;88.11;96772.28;4975351;28;20599;-71
2021/09/03 00:10:21;;;;;;;12.27;6.93;;;;;;;13.98;86.42;96775.94;4975760;28;20226;-71
2021/09/03 00:12:48;;;;;;;9.75;5.88;;;;;;;14.00;84.64;96776.59;4974905;28;20210;-71
2021/09/03 00:15:17;;;;;;;11.32;5.78;;;;;;;13.98;83.24;96772.47;4974946;28;20210;-71
2021/09/03 00:17:43;;;;;;;11.55;6.15;;;;;;;13.80;83.92;96769.41;4974750;28;20264;-71
2021/09/03 00:20:12;;;;;;;10.23;5.43;;;;;;;14.04;84.07;96769.91;4975322;28;20249;-71
2021/09/03 00:22:39;;;;;;;11.68;6.13;;;;;;;13.67;87.01;96769.22;4974511;28;20210;-71
2021/09/03 00:25:09;;;;;;;14.53;6.40;;;;;;;13.92;87.42;96759.97;4974642;28;20203;-70
2021/09/03 00:27:36;;;;;;;10.70;6.23;;;;;;;13.85;84.74;96767.03;4974196;28;20223;-70
2021/09/03 00:30:02;;;;;;;10.30;5.97;;;;;;;13.97;84.77;96765.53;4974845;28;20203;-70
2021/09/03 00:32:29;;;;;;;9.95;5.32;;;;;;;13.87;82.94;96764.19;4974253;28;20214;-70
2021/09/03 00:34:55;;;;;;;10.90;5.47;;;;;;;13.89;83.59;96763.00;4974497;28;20204;-70
2021/09/03 00:37:22;;;;;;;10.48;6.32;;;;;;;13.82;86.08;96759.41;4973875;28;20242;-70
2021/09/03 00:39:48;;;;;;;10.23;6.10;;;;;;;13.77;85.41;96761.00;4974314;28;20216;-70
2021/09/03 00:42:16;;;;;;;10.48;5.47;;;;;;;13.98;83.89;96754.75;4974580;28;20199;-70
2021/09/03 00:44:44;;;;;;;12.25;6.65;;;;;;;13.76;85.37;96749.59;4974697;28;20203;-71
2021/09/03 00:47:10;;;;;;;10.70;6.07;;;;;;;13.53;85.33;96753.31;4975464;28;20223;-70
2021/09/03 00:49:37;;;;;;;18.50;6.53;;;;;;;13.52;87.77;96757.81;4977954;28;20625;-70
2021/09/03 00:52:06;;;;;;;13.30;7.83;;;;;;;13.76;87.61;96751.41;4978080;28;20679;-71
2021/09/03 00:54:33;;;;;;;11.27;6.00;;;;;;;13.37;85.41;96758.00;4977446;28;20206;-70
2021/09/03 00:56:59;;;;;;;12.27;5.85;;;;;;;13.32;85.10;96752.41;4976928;28;20237;-70
2021/09/03 00:59:27;;;;;;;9.23;5.53;;;;;;;13.45;85.48;96756.06;4977811;28;20218;-70
2021/09/03 01:01:54;;;;;;;9.33;5.97;;;;;;;13.48;85.11;96750.41;4978109;28;20204;-70
2021/09/03 01:04:21;;;;;;;13.63;6.53;;;;;;;13.63;83.66;96752.06;4977009;28;20258;-70
2021/09/03 01:06:47;;;;;;;9.47;5.50;;;;;;;13.36;83.21;96751.84;4977025;28;20230;-70
2021/09/03 01:09:14;;;;;;;12.82;6.80;;;;;;;13.33;86.25;96751.38;4977778;28;20214;-70
2021/09/03 01:11:41;;;;;;;9.10;5.97;;;;;;;13.41;84.17;96750.28;4978028;28;20207;-70
2021/09/03 01:14:07;;;;;;;10.70;6.67;;;;;;;13.31;86.33;96750.75;4977384;28;20621;-70
2021/09/03 01:16:35;;;;;;;13.20;6.43;;;;;;;13.30;86.38;96741.16;4976508;28;20229;-70
2021/09/03 01:19:01;;;;;;;13.52;6.95;;;;;;;13.10;85.49;96745.38;4977251;28;20597;-70
2021/09/03 01:21:28;;;;;;;12.67;6.90;;;;;;;13.16;86.55;96740.16;4977614;28;20211;-70
2021/09/03 01:23:56;;;;;;;11.87;6.03;;;;;;;13.35;84.66;96744.09;4977073;28;20210;-71
2021/09/03 01:26:25;;;;;;;9.63;5.97;;;;;;;13.21;82.79;96742.25;4976658;28;20234;-71
2021/09/03 01:28:52;;;;;;;14.40;7.50;;;;;;;13.20;86.78;96740.59;4976750;28;20214;-71
2021/09/03 01:31:18;;;;;;;13.97;7.73;;;;;;;13.16;89.01;96732.22;4977348;28;20953;-71
2021/09/03 01:33:45;;;;;;;12.30;6.87;;;;;;;13.33;88.47;96730.22;4977404;28;20210;-71
2021/09/03 01:36:11;;;;;;;8.60;5.90;;;;;;;13.15;85.95;96735.88;4976056;28;20223;-71
2021/09/03 01:38:38;;;;;;;10.80;6.67;;;;;;;13.13;86.90;96731.75;4976745;28;20223;-71
2021/09/03 01:41:07;;;;;;;12.07;7.20;;;;;;;13.37;86.86;96734.16;4977069;28;20299;-71
2021/09/03 01:43:33;;;;;;;10.50;6.47;;;;;;;13.19;84.43;96741.63;4977314;28;20285;-71
2021/09/03 01:46:00;;;;;;;11.33;6.60;;;;;;;13.30;85.87;96735.88;4975825;28;20223;-71
2021/09/03 01:48:26;;;;;;;11.33;5.67;;;;;;;13.06;84.90;96738.75;4976978;28;20208;-71
2021/09/03 01:50:53;;;;;;;9.50;6.10;;;;;;;12.95;84.59;96741.84;4977047;28;20203;-72
2021/09/03 01:53:19;;;;;;;14.53;8.00;;;;;;;13.05;86.91;96742.44;4976979;28;20207;-71
2021/09/03 01:55:45;;;;;;;13.90;7.77;;;;;;;13.09;88.40;96741.06;4975938;28;20224;-71
2021/09/03 01:58:13;;;;;;;13.40;7.60;;;;;;;13.27;87.63;96744.19;4976646;28;20219;-71
2021/09/03 02:00:40;;;;;;;15.87;7.50;;;;;;;12.92;87.14;96747.53;4976795;28;20210;-71
2021/09/03 02:03:06;;;;;;;11.53;6.83;;;;;;;12.85;85.58;96741.25;4976457;28;20203;-71
2021/09/03 02:05:33;;;;;;;11.93;6.70;;;;;;;12.71;86.16;96731.44;4976382;28;20210;-71
2021/09/03 02:07:59;;;;;;;12.60;6.97;;;;;;;12.84;86.26;96729.00;4976438;28;20204;-71
2021/09/03 02:10:26;;;;;;;13.63;7.37;;;;;;;12.85;87.20;96723.56;4976553;28;20214;-71
2021/09/03 02:12:52;;;;;;;14.23;7.67;;;;;;;12.83;87.83;96720.28;4976657;28;20210;-71
2021/09/03 02:15:20;;;;;;;14.27;8.33;;;;;;;12.97;88.94;96716.88;4972610;28;20669;-71
2021/09/03 02:17:46;;;;;;;14.07;8.50;;;;;;;12.81;89.46;96713.50;4976091;28;20223;-71
2021/09/03 02:20:13;;;;;;;15.07;8.10;;;;;;;12.96;88.91;96712.56;4976653;28;20215;-71
2021/09/03 02:22:39;;;;;;;15.20;8.10;;;;;;;13.16;86.42;96713.72;4977230;28;20207;-71
2021/09/03 02:25:06;;;;;;;12.10;6.83;;;;;;;13.08;84.13;96707.66;4975968;28;20352;-71
2021/09/03 02:27:33;;;;;;;13.60;6.80;;;;;;;12.92;85.29;96711.28;4975370;28;20223;-71
2021/09/03 02:30:00;;;;;;;12.10;7.03;;;;;;;12.86;86.40;96717.28;4976743;28;20242;-71
2021/09/03 02:32:27;;;;;;;14.63;8.10;;;;;;;13.00;90.41;96708.56;4975820;28;20211;-71
2021/09/03 02:34:54;;;;;;;15.13;8.73;;;;;;;12.90;91.07;96705.34;4976618;28;20683;-71
2021/09/03 02:37:20;;;;;;;19.07;10.00;;;;;;;12.99;91.78;96714.03;4975704;28;20223;-71
2021/09/03 02:39:47;;;;;;;10.87;6.87;;;;;;;12.70;86.68;96716.56;4976461;28;21081;-71
2021/09/03 02:42:13;;;;;;;9.70;6.10;;;;;;;12.92;83.87;96716.59;4975976;28;20211;-71
2021/09/03 02:44:40;;;;;;;9.57;5.93;;;;;;;12.88;84.22;96710.00;4976530;28;20671;-71
2021/09/03 02:47:06;;;;;;;10.63;6.63;;;;;;;12.75;83.40;96714.22;4974930;28;20219;-71
2021/09/03 02:49:34;;;;;;;12.03;6.07;;;;;;;12.67;84.46;96718.78;4976136;28;20202;-71
2021/09/03 02:52:01;;;;;;;12.63;6.63;;;;;;;12.66;84.90;96715.28;4975974;28;20215;-71
2021/09/03 02:54:27;;;;;;;10.47;6.50;;;;;;;12.49;84.39;96713.78;4976148;28;20215;-71
2021/09/03 02:56:54;;;;;;;11.80;6.97;;;;;;;12.57;83.83;96699.69;4974548;28;20891;-71
2021/09/03 02:59:20;;;;;;;11.70;7.10;;;;;;;12.53;85.47;96704.50;4975453;28;20841;-71
2021/09/03 03:01:47;;;;;;;13.23;6.50;;;;;;;12.49;85.51;96697.94;4975924;28;20200;-71
2021/09/03 03:04:13;;;;;;;14.33;7.87;;;;;;;12.61;85.96;96696.50;4976372;28;20203;-71
2021/09/03 03:06:41;;;;;;;15.37;8.63;;;;;;;12.98;86.75;96696.50;4974508;28;20245;-71
2021/09/03 03:09:07;;;;;;;18.00;8.87;;;;;;;12.64;87.46;96690.88;4974924;28;20210;-71
2021/09/03 03:11:34;;;;;;;16.20;7.63;;;;;;;12.89;86.60;96687.00;4975784;28;20680;-71
2021/09/03 03:14:04;;;;;;;10.17;6.10;;;;;;;12.61;84.75;96691.19;4975546;28;20204;-71
2021/09/03 03:16:31;;;;;;;11.00;6.67;;;;;;;12.48;84.54;96688.34;4974911;28;20254;-71
2021/09/03 03:18:57;;;;;;;11.17;6.57;;;;;;;12.66;84.08;96693.31;4975837;28;20227;-71
2021/09/03 03:21:24;;;;;;;13.43;7.10;;;;;;;12.61;84.06;96700.97;4976224;28;20207;-71
2021/09/03 03:23:51;;;;;;;13.73;7.70;;;;;;;12.73;86.10;96695.09;4975142;28;20223;-71
2021/09/03 03:26:18;;;;;;;16.30;7.87;;;;;;;12.63;86.83;96699.78;4975323;28;20491;-71
2021/09/03 03:28:44;;;;;;;13.00;7.23;;;;;;;12.74;85.00;96685.31;4975930;28;20240;-71
2021/09/03 03:31:11;;;;;;;15.20;8.17;;;;;;;12.77;86.57;96680.50;4975213;28;20214;-71
2021/09/03 03:33:37;;;;;;;13.60;7.20;;;;;;;12.81;85.23;96687.06;4975358;28;20207;-70
2021/09/03 03:36:05;;;;;;;13.57;7.87;;;;;;;12.86;84.03;96682.09;4976829;28;20230;-71
2021/09/03 03:38:31;;;;;;;13.67;7.73;;;;;;;12.63;85.32;96677.84;4975452;28;20323;-71
2021/09/03 03:40:59;;;;;;;14.07;8.17;;;;;;;12.81;85.37;96685.22;4976421;28;20207;-71
2021/09/03 03:43:26;;;;;;;14.97;8.03;;;;;;;12.64;85.22;96685.59;4976403;28;20679;-71
2021/09/03 03:45:52;;;;;;;12.53;7.10;;;;;;;12.38;83.67;96685.13;4975507;28;20931;-71
2021/09/03 03:48:19;;;;;;;13.67;7.57;;;;;;;12.49;83.47;96681.25;4975189;28;20200;-70
2021/09/03 03:50:45;;;;;;;16.03;8.10;;;;;;;12.59;86.13;96682.66;4976887;28;20661;-71
2021/09/03 03:53:11;;;;;;;15.50;8.73;;;;;;;12.65;87.71;96687.19;4975817;28;20230;-70
2021/09/03 03:55:38;;;;;;;18.57;9.63;;;;;;;12.72;87.54;96682.84;4975103;28;20262;-71
2021/09/03 03:58:06;;;;;;;13.70;8.07;;;;;;;12.93;85.18;96685.66;4976120;28;20223;-71
2021/09/03 04:00:32;;;;;;;16.93;8.60;;;;;;;12.69;85.88;96682.38;4976320;28;20210;-71
2021/09/03 04:02:59;;;;;;;16.10;8.40;;;;;;;12.68;86.07;96686.03;4975639;28;20206;-71
2021/09/03 04:05:25;;;;;;;13.33;7.57;;;;;;;12.65;84.96;96681.91;4975379;28;20207;-70
2021/09/03 04:07:52;;;;;;;12.57;7.47;;;;;;;12.60;84.74;96684.28;4976301;28;20211;-71
2021/09/03 04:10:19;;;;;;;13.23;7.73;;;;;;;12.75;83.88;96689.59;4975627;28;20207;-71
2021/09/03 04:12:45;;;;;;;15.80;7.87;;;;;;;12.64;85.26;96690.88;4975674;28;20719;-71
2021/09/03 04:15:13;;;;;;;13.30;8.03;;;;;;;12.88;87.30;96688.00;4975343;28;20203;-70
2021/09/03 04:17:39;;;;;;;15.07;8.33;;;;;;;12.73;85.78;96684.50;4975926;28;20230;-71
2021/09/03 04:20:08;;;;;;;14.20;8.03;;;;;;;12.83;86.16;96685.09;4975555;28;20203;-71
2021/09/03 04:22:34;;;;;;;14.10;8.30;;;;;;;12.73;85.90;96684.50;4978098;28;20583;-71
2021/09/03 04:25:01;;;;;;;12.83;7.20;;;;;;;12.56;84.20;96682.97;4979606;28;20203;-70
2021/09/03 04:27:28;;;;;;;12.00;6.80;;;;;;;12.58;83.17;96691.56;4978726;28;20238;-71
2021/09/03 04:29:54;;;;;;;9.87;5.90;;;;;;;12.48;83.37;96687.53;4979523;28;20199;-71
2021/09/03 04:32:22;;;;;;;10.00;6.10;;;;;;;12.32;84.92;96685.00;4979559;28;20575;-70
2021/09/03 04:34:49;;;;;;;9.00;5.40;;;;;;;12.16;84.36;96687.78;4979042;28;20210;-71
2021/09/03 04:37:15;;;;;;;11.97;6.70;;;;;;;12.32;85.60;96685.00;4977638;28;20227;-71
2021/09/03 04:39:42;;;;;;;14.33;8.13;;;;;;;12.44;88.62;96673.03;4977682;28;20227;-71
2021/09/03 04:42:08;;;;;;;15.27;7.93;;;;;;;12.36;87.73;96681.84;4977504;28;20671;-71
2021/09/03 04:44:35;;;;;;;15.43;8.57;;;;;;;12.51;87.11;96684.53;4978632;28;20211;-71
2021/09/03 04:47:02;;;;;;;17.37;9.37;;;;;;;12.61;90.13;96685.09;4977304;28;20227;-71
2021/09/03 04:49:29;;;;;;;10.07;6.30;;;;;;;12.65;85.72;96692.50;4977790;28;20214;-71
2021/09/03 04:51:56;;;;;;;12.63;6.27;;;;;;;12.29;84.77;96691.47;4977474;28;20207;-71
2021/09/03 04:54:22;;;;;;;14.10;8.07;;;;;;;12.29;86.29;96690.66;4978025;28;20588;-71
2021/09/03 04:56:49;;;;;;;15.50;8.20;;;;;;;12.48;89.15;96696.28;4977092;28;20249;-71
2021/09/03 04:59:15;;;;;;;15.13;8.60;;;;;;;12.54;88.25;96687.63;4977842;28;20219;-71
2021/09/03 05:01:42;;;;;;;16.40;8.83;;;;;;;12.76;87.33;96686.78;4977804;28;20214;-71
2021/09/03 05:04:08;;;;;;;19.50;9.27;;;;;;;13.01;87.36;96682.94;4977753;28;20210;-71
2021/09/03 05:06:36;;;;;;;25.63;10.33;;;;;;;13.21;89.02;96678.75;4976528;28;20284;-71
2021/09/03 05:09:03;;;;;;;19.93;9.40;;;;;;;12.95;87.08;96676.53;4977840;28;20195;-71
2021/09/03 05:11:29;;;;;;;16.53;9.83;;;;;;;13.07;87.82;96677.75;4977410;28;20211;-71
2021/09/03 05:13:56;;;;;;;17.60;10.60;;;;;;;12.92;89.02;96678.75;4977392;28;20580;-71
2021/09/03 05:16:22;;;;;;;15.23;9.13;;;;;;;13.01;88.93;96675.00;4976830;28;20719;-71
2021/09/03 05:18:49;;;;;;;15.93;9.30;;;;;;;13.09;89.54;96667.78;4977169;28;20230;-71
2021/09/03 05:21:15;;;;;;;17.50;10.13;;;;;;;13.30;90.29;96669.72;4976942;28;20210;-71
2021/09/03 05:23:43;;;;;;;16.00;8.97;;;;;;;13.42;88.73;96671.72;4977684;28;20199;-71
2021/09/03 05:26:09;;;;;;;15.27;8.83;;;;;;;13.25;88.57;96670.28;4976172;28;20234;-71
2021/09/03 05:28:37;;;;;;;16.90;9.27;;;;;;;13.48;87.65;96671.00;4977318;28;20204;-71
2021/09/03 05:31:03;;;;;;;16.13;9.82;;;;;;;13.45;87.86;96676.63;4977347;28;20265;-71
2021/09/03 05:33:30;;;;;;;18.63;10.50;;;;;;;13.52;88.72;96678.38;4976605;28;20207;-71
2021/09/03 05:35:56;;;;;;;21.60;11.23;;;;;;;13.59;90.24;96678.44;4976212;28;20310;-71
2021/09/03 05:38:23;;;;;;;19.23;11.10;;;;;;;13.52;91.57;96688.16;4977515;28;20227;-71
2021/09/03 05:40:51;;;;;;;19.27;11.07;;;;;;;13.77;91.78;96686.81;4976803;28;20203;-71
2021/09/03 05:43:20;;;;;;;19.87;11.37;;;;;;;13.57;93.22;96689.22;4977057;28;20249;-71
2021/09/03 05:45:48;;;;;;;23.92;12.20;;;;;;;13.75;94.76;96689.66;4976287;28;20241;-71
2021/09/03 05:48:15;;;;;;;22.03;11.90;;;;;;;13.87;93.95;96690.81;4976950;28;20207;-71
2021/09/03 05:50:41;;;;;;;21.42;11.77;;;;;;;14.08;93.06;96682.94;4977197;28;20234;-71
2021/09/03 05:53:07;;;;;;;20.75;11.40;;;;;;;14.11;91.78;96679.91;4976515;28;20663;-71
2021/09/03 05:55:34;;;;;;;19.63;11.32;;;;;;;14.16;91.45;96688.94;4976294;28;20225;-71
2021/09/03 05:58:02;;;;;;;17.90;10.50;;;;;;;14.35;91.04;96682.22;4977094;28;20214;-71
2021/09/03 06:00:28;;;;;;;18.98;10.77;;;;;;;14.17;91.73;96684.47;4976261;28;20223;-71
2021/09/03 06:02:55;;;;;;;20.60;10.50;;;;;;;14.27;90.93;96687.66;4976846;28;20211;-71
2021/09/03 06:05:22;;;;;;;22.85;11.05;;;;;;;14.30;92.29;96689.91;4976623;28;20694;-71
2021/09/03 06:07:48;;;;;;;22.92;10.77;;;;;;;14.47;91.25;96681.50;4975773;28;20214;-71
2021/09/03 06:10:14;;;;;;;19.25;10.38;;;;;;;14.61;91.89;96682.44;4977135;28;20660;-71
2021/09/03 06:12:41;;;;;;;19.65;10.75;;;;;;;14.66;92.96;96686.16;4976498;28;20563;-71
2021/09/03 06:15:11;;;;;;;18.48;10.30;;;;;;;15.15;91.41;96682.47;4976345;28;21021;-71
2021/09/03 06:17:38;;;;;;;18.48;9.80;;;;;;;15.21;91.73;96686.22;4975755;28;20810;-71
2021/09/03 06:20:07;;;;;;;19.42;11.15;;;;;;;15.32;92.03;96683.84;4976469;28;20223;-71
2021/09/03 06:22:34;;;;;;;17.92;10.73;;;;;;;15.23;92.48;96685.00;4976744;28;20210;-71
2021/09/03 06:25:01;;;;;;;22.40;11.07;;;;;;;15.27;93.03;96680.94;4976391;28;20218;-71
2021/09/03 06:27:27;;;;;;;23.13;11.57;;;;;;;15.41;92.57;96687.97;4975712;28;20227;-71
2021/09/03 06:29:54;;;;;;;19.58;11.50;;;;;;;15.62;91.56;96694.03;4976333;28;20682;-71
2021/09/03 06:32:23;;;;;;;17.67;9.95;;;;;;;15.81;91.02;96695.97;4976418;28;20672;-71
2021/09/03 06:34:51;;;;;;;20.92;10.30;;;;;;;15.78;91.67;96690.22;4976342;28;20286;-71
2021/09/03 06:37:19;;;;;;;20.85;11.25;;;;;;;15.79;92.21;96691.88;4975459;28;20301;-71
2021/09/03 06:39:46;;;;;;;20.00;11.18;;;;;;;15.83;91.01;96683.28;4974839;28;20232;-71
2021/09/03 06:42:13;;;;;;;22.83;11.80;;;;;;;16.06;90.00;96683.78;4975772;28;20203;-71
2021/09/03 06:44:40;;;;;;;21.65;10.77;;;;;;;15.88;91.12;96694.13;4975093;28;20211;-71
2021/09/03 06:47:07;;;;;;;17.70;9.90;;;;;;;16.20;88.86;96691.59;4975565;28;20219;-71
2021/09/03 06:49:35;;;;;;;18.05;10.45;;;;;;;16.02;89.18;96688.66;4975697;28;20202;-71
2021/09/03 06:52:03;;;;;;;19.45;10.15;;;;;;;16.04;90.04;96693.81;4975810;28;21104;-72
2021/09/03 06:54:31;;;;;;;18.73;10.40;;;;;;;15.99;91.15;96694.38;4975524;28;20226;-72
2021/09/03 06:56:57;;;;;;;18.85;10.63;;;;;;;15.86;91.80;96697.00;4975454;28;20223;-72
2021/09/03 06:59:24;;;;;;;21.55;10.68;;;;;;;15.84;90.73;96693.69;4976251;28;20227;-72
2021/09/03 07:01:50;;;;;;;29.73;11.35;;;;;;;16.09;91.00;96689.53;4975491;28;20200;-72
2021/09/03 07:04:17;;;;;;;18.73;10.90;;;;;;;16.14;90.93;96692.41;4975919;28;20199;-72
2021/09/03 07:06:45;;;;;;;20.33;11.13;;;;;;;16.43;90.56;96685.94;4975354;28;20730;-72
2021/09/03 07:09:12;;;;;;;19.77;10.85;;;;;;;16.30;91.70;96692.06;4975443;28;20218;-72
2021/09/03 07:11:39;;;;;;;17.48;10.40;;;;;;;16.38;90.82;96683.91;4975803;28;20203;-71
2021/09/03 07:14:06;;;;;;;20.30;10.88;;;;;;;16.46;90.28;96689.03;4975492;28;20682;-72
2021/09/03 07:16:32;;;;;;;17.50;10.25;;;;;;;16.36;90.32;96699.25;4974787;28;21050;-71
2021/09/03 07:19:02;;;;;;;23.23;11.00;;;;;;;16.49;89.06;96688.63;4975450;28;20398;-72
2021/09/03 07:21:29;;;;;;;16.95;9.75;;;;;;;16.64;88.72;96689.28;4975522;28;20222;-72
2021/09/03 07:23:57;;;;;;;17.70;10.35;;;;;;;16.90;89.55;96691.94;4975596;28;20208;-72
2021/09/03 07:26:24;;;;;;;22.10;10.70;;;;;;;16.97;89.88;96684.75;4974615;28;20235;-72
2021/09/03 07:28:50;;;;;;;18.45;10.20;;;;;;;17.05;89.03;96692.56;4975733;28;20223;-71
2021/09/03 07:31:16;;;;;;;20.13;10.30;;;;;;;17.00;87.51;96690.50;4975550;28;20214;-72
2021/09/03 07:33:43;;;;;;;19.00;10.07;;;;;;;16.97;86.39;96682.09;4975652;28;20200;-72
2021/09/03 07:36:10;;;;;;;18.95;10.07;;;;;;;16.92;86.45;96684.56;4974190;28;20219;-72
2021/09/03 07:38:36;;;;;;;24.15;10.48;;;;;;;17.16;86.25;96682.91;4975951;28;20204;-72
2021/09/03 07:41:04;;;;;;;17.83;10.15;;;;;;;17.42;87.52;96684.75;4974922;28;20233;-72
2021/09/03 07:43:31;;;;;;;17.00;10.18;;;;;;;17.42;87.29;96682.88;4975270;28;20757;-72
2021/09/03 07:45:58;;;;;;;19.55;10.80;;;;;;;17.50;86.06;96684.53;4974607;28;20227;-72
2021/09/03 07:48:25;;;;;;;17.05;10.27;;;;;;;17.59;87.43;96684.09;4975549;28;20611;-72
2021/09/03 07:50:51;;;;;;;15.93;10.15;;;;;;;17.83;86.99;96683.38;4974374;28;20690;-72
2021/09/03 07:53:18;;;;;;;19.50;9.63;;;;;;;17.88;86.91;96680.91;4975783;28;20207;-72
2021/09/03 07:55:44;;;;;;;16.73;10.10;;;;;;;17.72;87.22;96687.53;4974297;28;20230;-71
2021/09/03 07:58:12;;;;;;;20.92;10.55;;;;;;;18.01;85.42;96684.38;4975005;28;20210;-72
2021/09/03 08:00:39;;;;;;;15.93;9.43;;;;;;;17.90;85.77;96694.88;4974908;28;20245;-72
2021/09/03 08:03:06;;;;;;;20.23;10.40;;;;;;;17.74;87.44;96690.00;4975458;28;21140;-71
2021/09/03 08:05:33;;;;;;;16.80;10.00;;;;;;;17.79;84.72;96690.19;4974605;28;20230;-72
2021/09/03 08:07:59;;;;;;;17.13;9.25;;;;;;;18.04;84.68;96691.13;4974195;28;20823;-72
2021/09/03 08:10:29;;;;;;;17.40;9.45;;;;;;;18.15;84.10;96693.94;4974732;28;20485;-72
2021/09/03 08:12:55;;;;;;;16.33;9.35;;;;;;;17.81;85.43;96690.81;4973190;28;20554;-72
2021/09/03 08:15:23;;;;;;;18.08;9.75;;;;;;;18.13;84.04;96695.19;4974343;28;20218;-72
2021/09/03 08:17:50;;;;;;;19.77;9.30;;;;;;;17.91;83.45;96699.97;4976027;28;20244;-70
2021/09/03 08:20:16;;;;;;;15.40;8.63;;;;;;;18.41;82.25;96689.28;4981702;28;20227;-71
2021/09/03 08:22:47;;;;;;;13.73;8.50;;;;;;;18.86;79.81;96688.16;4981263;28;20207;-71
2021/09/03 08:25:14;;;;;;;18.38;9.95;;;;;;;18.73;80.09;96687.47;4976460;28;20211;-71
2021/09/03 08:27:40;;;;;;;16.83;9.77;;;;;;;18.57;82.44;96690.63;4975020;28;20219;-72
2021/09/03 08:30:08;;;;;;;21.38;10.15;;;;;;;18.71;83.12;96685.00;4974698;28;20206;-71
2021/09/03 08:32:36;;;;;;;16.13;9.75;;;;;;;18.87;81.75;96692.47;4974181;28;20211;-71
2021/09/03 08:35:03;;;;;;;15.65;9.40;;;;;;;18.92;80.03;96689.97;4974665;28;20694;-72
2021/09/03 08:37:30;;;;;;;17.90;9.55;;;;;;;18.90;81.94;96692.03;4973677;28;20234;-72
2021/09/03 08:39:56;;;;;;;17.75;9.63;;;;;;;19.02;79.55;96687.66;4974559;28;20223;-72
2021/09/03 08:42:23;;;;;;;17.65;10.07;;;;;;;19.16;81.38;96687.34;4975004;28;20206;-72
2021/09/03 08:44:51;;;;;;;17.67;9.95;;;;;;;19.38;80.67;96691.25;4974442;28;20208;-72
2021/09/03 08:47:20;;;;;;;16.63;9.20;;;;;;;19.43;79.07;96696.75;4973987;28;20638;-72
2021/09/03 08:49:48;;;;;;;19.17;10.43;;;;;;;19.75;79.69;96696.41;4974394;28;20196;-72
2021/09/03 08:52:14;;;;;;;16.45;9.38;;;;;;;19.91;76.68;96703.88;4974549;28;20203;-71
2021/09/03 08:54:40;;;;;;;17.40;9.60;;;;;;;19.67;78.31;96695.91;4974465;28;20219;-73
2021/09/03 08:57:07;;;;;;;16.52;9.93;;;;;;;20.01;75.21;96689.97;4973747;28;20219;-72
2021/09/03 08:59:33;;;;;;;19.52;9.73;;;;;;;19.67;76.76;96688.69;4974012;28;20230;-72
2021/09/03 09:02:10;;;;;;;16.58;9.50;;;;;;;20.13;77.42;96689.00;4974290;28;20214;-71
2021/09/03 09:04:38;;;;;;;16.10;9.48;;;;;;;20.05;76.96;96697.34;4974374;28;20203;-73
2021/09/03 09:07:07;;;;;;;15.77;9.80;;;;;;;19.86;77.58;96687.66;4974363;28;20254;-72
2021/09/03 09:09:35;;;;;;;18.60;9.57;;;;;;;20.16;78.00;96691.22;4977585;28;20211;-73
2021/09/03 09:12:03;;;;;;;17.45;9.30;;;;;;;19.84;76.63;96692.41;4977822;28;20214;-72
2021/09/03 09:14:30;;;;;;;14.60;8.57;;;;;;;19.96;76.24;96687.97;4977195;28;20207;-72
2021/09/03 09:17:02;;;;;;;16.48;9.75;;;;;;;20.07;75.97;96692.56;4977943;28;21183;-73
2021/09/03 09:19:29;;;;;;;18.08;9.25;;;;;;;20.16;76.15;96682.38;4979664;28;20586;-73
2021/09/03 09:22:00;;;;;;;16.25;10.07;;;;;;;20.46;73.76;96684.03;4977835;28;20200;-72
2021/09/03 09:24:28;;;;;;;17.88;10.05;;;;;;;20.55;74.84;96683.47;4976658;28;20219;-71
2021/09/03 09:26:56;;;;;;;16.90;8.88;;;;;;;20.50;75.66;96679.88;4977141;28;20690;-72
2021/09/03 09:29:25;;;;;;;16.13;9.15;;;;;;;20.70;73.09;96669.69;4978143;28;20237;-72
2021/09/03 09:31:53;;;;;;;13.82;8.85;;;;;;;20.46;75.76;96671.47;4977970;28;20207;-72
2021/09/03 09:34:22;;;;;;;16.17;9.93;;;;;;;20.68;74.32;96671.78;4976520;28;20234;-72
2021/09/03 09:36:52;;;;;;;15.25;9.38;;;;;;;20.58;78.86;96666.16;4976313;28;20219;-72
2021/09/03 09:39:18;;;;;;;15.57;9.30;;;;;;;20.96;73.44;96670.94;4976928;28;20208;-72
2021/09/03 09:41:56;;;;;;;14.10;9.13;;;;;;;20.41;74.06;96671.31;4977048;28;20238;-72
2021/09/03 09:44:28;;;;;;;16.27;9.27;;;;;;;21.00;73.53;96668.59;4977240;28;20216;-73
2021/09/03 09:47:03;;;;;;;17.00;9.82;;;;;;;21.24;73.14;96668.38;4976340;28;20231;-73
2021/09/03 09:49:29;;;;;;;15.18;8.90;;;;;;;21.13;73.52;96668.38;4976729;28;20203;-73
2021/09/03 09:51:57;;;;;;;18.85;9.07;;;;;;;21.24;71.55;96660.34;4977164;28;20207;-73
2021/09/03 09:54:26;;;;;;;15.90;9.73;;;;;;;21.54;71.13;96664.59;4976570;28;20218;-73
2021/09/03 09:56:55;;;;;;;15.02;9.02;;;;;;;21.81;71.26;96654.97;4976040;28;20250;-72
2021/09/03 09:59:23;;;;;;;16.42;10.30;;;;;;;22.34;70.06;96645.66;4977168;28;20242;-73
2021/09/03 10:01:51;;;;;;;36.28;19.45;;;;;;;22.43;68.79;96641.50;4975765;28;20226;-73
2021/09/03 10:04:19;;;;;;;36.53;19.75;;;;;;;22.60;70.42;96637.00;4976056;28;20207;-72
2021/09/03 10:06:48;;;;;;;17.67;9.90;;;;;;;22.68;68.48;96637.41;4975029;28;20227;-73
2021/09/03 10:09:16;;;;;;;45.00;21.90;;;;;;;23.19;67.68;96636.41;4976557;28;20206;-73
2021/09/03 10:11:46;;;;;;;16.60;9.95;;;;;;;23.28;66.54;96637.63;4976508;28;20253;-73
2021/09/03 10:14:16;;;;;;;47.60;27.20;;;;;;;23.26;68.18;96639.75;4976305;28;20233;-72
2021/09/03 10:16:43;;;;;;;17.60;9.57;;;;;;;23.14;66.27;96639.00;4975730;28;20223;-73
2021/09/03 10:19:10;;;;;;;13.32;8.25;;;;;;;22.78;64.36;96636.75;4976459;28;20199;-74
2021/09/03 10:21:39;;;;;;;14.57;8.23;;;;;;;22.72;64.22;96638.56;4976258;28;20280;-75
2021/09/03 10:24:15;;;;;;;13.80;7.82;;;;;;;22.81;68.40;96637.09;4976982;28;20659;-73
2021/09/03 10:26:43;;;;;;;14.95;7.82;;;;;;;22.82;71.05;96638.75;4975697;28;20229;-73
2021/09/03 10:29:27;;;;;;;12.68;7.63;;;;;;;23.48;67.81;96628.78;4976560;28;20207;-73
2021/09/03 10:32:26;;;;;;;14.82;8.02;;;;;;;23.53;66.58;96634.22;4976540;28;20206;-72
2021/09/03 10:35:02;;;;;;;14.43;8.07;;;;;;;23.22;65.03;96628.66;4976199;28;20207;-74
2021/09/03 10:37:37;;;;;;;14.52;7.75;;;;;;;23.44;66.38;96626.84;4975520;28;20250;-74
2021/09/03 10:40:20;;;;;;;13.23;7.63;;;;;;;23.32;65.60;96618.88;4977453;28;20226;-74
2021/09/03 10:42:55;;;;;;;11.25;7.35;;;;;;;23.53;64.38;96618.09;4976118;28;20679;-74
2021/09/03 10:45:30;;;;;;;12.68;7.20;;;;;;;23.62;63.76;96618.50;4975287;28;20211;-74
2021/09/03 10:48:04;;;;;;;12.18;7.25;;;;;;;23.77;66.06;96616.84;4977044;28;21029;-74
2021/09/03 10:50:32;;;;;;;12.15;7.75;;;;;;;23.92;65.84;96609.78;4976006;28;20235;-75
2021/09/03 10:53:20;;;;;;;12.68;7.90;;;;;;;23.74;63.75;96606.59;4975913;28;20206;-74
2021/09/03 10:55:48;;;;;;;12.90;7.47;;;;;;;23.87;64.86;96611.59;4974869;28;20230;-74
2021/09/03 10:58:30;;;;;;;11.95;7.88;;;;;;;24.19;64.50;96604.44;4978035;28;20204;-77
2021/09/03 11:01:30;;;;;;;11.80;7.22;;;;;;;23.95;62.57;96597.69;4976654;28;20226;-74
2021/09/03 11:03:59;;;;;;;13.52;7.00;;;;;;;24.14;62.21;96596.31;4976309;28;20331;-76
2021/09/03 11:06:30;;;;;;;13.48;7.43;;;;;;;24.56;59.70;96594.63;4977043;28;20239;-70
2021/09/03 11:08:58;;;;;;;11.70;6.22;;;;;;;24.58;60.11;96596.81;4975850;28;20567;-76
2021/09/03 11:11:25;;;;;;;10.52;7.03;;;;;;;24.45;62.76;96587.50;4976399;28;20204;-75
2021/09/03 11:13:54;;;;;;;13.68;6.45;;;;;;;24.64;61.47;96590.41;4975808;28;20696;-76
2021/09/03 11:16:34;;;;;;;10.88;6.88;;;;;;;24.68;60.12;96596.91;4975284;28;20382;-75
2021/09/03 11:19:04;;;;;;;13.02;6.88;;;;;;;24.96;59.94;96585.84;4975769;28;21167;-74
2021/09/03 11:21:32;;;;;;;14.00;6.90;;;;;;;24.91;59.98;96593.03;4978265;28;20230;-72
2021/09/03 11:23:59;;;;;;;12.07;7.80;;;;;;;24.91;58.77;96596.56;4980569;28;21669;-73
2021/09/03 11:26:27;;;;;;;10.77;7.28;;;;;;;24.73;58.93;96593.44;4979184;28;20278;-75